sensor_id;sensor_type;location;lat;lon;timestamp;pressure;altitude;pressure_sealevel;temperature;humidity
75587;BME280;64164;50.156;14.570;2022-10-16T06:29:42;99088.66;;;13.88;94.89
75587;BME280;64164;50.156;14.570;2022-10-16T06:32:08;99096.19;;;13.86;95.20
75587;BME280;64164;50.156;14.570;2022-10-16T06:34:34;99099.78;;;13.92;94.15
75587;BME280;64164;50.156;14.570;2022-10-16T06:37:00;99102.06;;;14.00;94.39
75587;BME280;64164;50.156;14.570;2022-10-16T06:39:25;99103.38;;;13.98;94.73
75587;BME280;64164;50.156;14.570;2022-10-16T06:41:51;99106.03;;;14.09;94.11
75587;BME280;64164;50.156;14.570;2022-10-16T06:44:16;99107.38;;;14.12;93.31
75587;BME280;64164;50.156;14.570;2022-10-16T06:46:41;99120.06;;;14.11;94.14
75587;BME280;64164;50.156;14.570;2022-10-16T06:49:06;99129.72;;;14.07;93.44
75587;BME280;64164;50.156;14.570;2022-10-16T06:51:32;99126.59;;;14.16;92.46
75587;BME280;64164;50.156;14.570;2022-10-16T06:53:59;99136.00;;;14.30;92.04
75587;BME280;64164;50.156;14.570;2022-10-16T06:56:26;99121.03;;;14.39;91.60
75587;BME280;64164;50.156;14.570;2022-10-16T06:58:53;99116.69;;;14.38;91.95
75587;BME280;64164;50.156;14.570;2022-10-16T07:01:21;99116.69;;;14.38;91.43
75587;BME280;64164;50.156;14.570;2022-10-16T07:03:47;99117.28;;;14.40;91.80
75587;BME280;64164;50.156;14.570;2022-10-16T07:06:15;99120.78;;;14.41;91.53
75587;BME280;64164;50.156;14.570;2022-10-16T07:08:42;99128.25;;;14.50;91.41
75587;BME280;64164;50.156;14.570;2022-10-16T07:11:13;99129.16;;;14.56;91.26
75587;BME280;64164;50.156;14.570;2022-10-16T07:13:40;99134.94;;;14.65;90.21
75587;BME280;64164;50.156;14.570;2022-10-16T07:16:14;99144.19;;;14.69;90.24
75587;BME280;64164;50.156;14.570;2022-10-16T07:18:41;99149.66;;;14.74;90.23
75587;BME280;64164;50.156;14.570;2022-10-16T07:21:10;99154.06;;;14.80;89.21
75587;BME280;64164;50.156;14.570;2022-10-16T07:23:36;99154.63;;;14.82;89.42
75587;BME280;64164;50.156;14.570;2022-10-16T07:26:02;99161.00;;;14.93;89.07
75587;BME280;64164;50.156;14.570;2022-10-16T07:28:28;99163.94;;;14.91;89.18
75587;BME280;64164;50.156;14.570;2022-10-16T07:30:54;99166.19;;;14.99;88.91
75587;BME280;64164;50.156;14.570;2022-10-16T07:33:20;99159.00;;;15.05;89.22
75587;BME280;64164;50.156;14.570;2022-10-16T07:35:50;99176.34;;;15.09;89.26
75587;BME280;64164;50.156;14.570;2022-10-16T07:38:15;99177.16;;;15.09;88.80
75587;BME280;64164;50.156;14.570;2022-10-16T07:40:41;99186.84;;;15.05;89.13
75587;BME280;64164;50.156;14.570;2022-10-16T07:43:06;99176.88;;;15.11;88.95
75587;BME280;64164;50.156;14.570;2022-10-16T07:45:31;99183.75;;;15.19;88.53
75587;BME280;64164;50.156;14.570;2022-10-16T07:47:57;99180.94;;;15.30;87.79
75587;BME280;64164;50.156;14.570;2022-10-16T07:50:22;99182.56;;;15.31;87.32
75587;BME280;64164;50.156;14.570;2022-10-16T07:52:48;99177.72;;;15.33;87.78
75587;BME280;64164;50.156;14.570;2022-10-16T07:55:13;99173.13;;;15.34;87.79
75587;BME280;64164;50.156;14.570;2022-10-16T07:57:38;99178.13;;;15.42;87.37
75587;BME280;64164;50.156;14.570;2022-10-16T08:00:04;99187.41;;;15.51;86.75
75587;BME280;64164;50.156;14.570;2022-10-16T08:02:31;99184.56;;;15.63;86.29
75587;BME280;64164;50.156;14.570;2022-10-16T08:04:56;99187.25;;;15.63;86.01
75587;BME280;64164;50.156;14.570;2022-10-16T08:07:22;99193.47;;;15.64;86.07
75587;BME280;64164;50.156;14.570;2022-10-16T08:09:49;99186.53;;;15.68;85.90
75587;BME280;64164;50.156;14.570;2022-10-16T08:12:16;99186.03;;;15.71;86.03
75587;BME280;64164;50.156;14.570;2022-10-16T08:14:42;99185.72;;;15.67;86.05
75587;BME280;64164;50.156;14.570;2022-10-16T08:17:07;99178.22;;;15.74;85.51
75587;BME280;64164;50.156;14.570;2022-10-16T08:19:32;99165.47;;;15.70;85.39
75587;BME280;64164;50.156;14.570;2022-10-16T08:21:59;99162.34;;;15.83;84.86
75587;BME280;64164;50.156;14.570;2022-10-16T08:24:25;99166.31;;;15.75;85.27
75587;BME280;64164;50.156;14.570;2022-10-16T08:26:53;99168.78;;;15.77;85.62
75587;BME280;64164;50.156;14.570;2022-10-16T08:29:18;99174.44;;;15.75;84.95
75587;BME280;64164;50.156;14.570;2022-10-16T08:31:44;99182.34;;;15.82;85.23
75587;BME280;64164;50.156;14.570;2022-10-16T08:34:09;99177.06;;;15.92;84.57
75587;BME280;64164;50.156;14.570;2022-10-16T08:36:34;99194.41;;;15.96;84.33
75587;BME280;64164;50.156;14.570;2022-10-16T08:39:00;99188.03;;;16.08;84.47
75587;BME280;64164;50.156;14.570;2022-10-16T08:41:32;99186.16;;;16.13;84.14
75587;BME280;64164;50.156;14.570;2022-10-16T08:47:01;99198.03;;;16.39;83.55
75587;BME280;64164;50.156;14.570;2022-10-16T08:49:29;99199.72;;;16.45;83.60
75587;BME280;64164;50.156;14.570;2022-10-16T08:51:55;99207.03;;;16.45;81.56
75587;BME280;64164;50.156;14.570;2022-10-16T08:54:28;99208.69;;;16.51;81.82
75587;BME280;64164;50.156;14.570;2022-10-16T08:57:07;99226.13;;;16.60;81.02
75587;BME280;64164;50.156;14.570;2022-10-16T08:59:34;99222.13;;;16.73;81.00
75587;BME280;64164;50.156;14.570;2022-10-16T09:01:59;99229.31;;;16.89;80.42
75587;BME280;64164;50.156;14.570;2022-10-16T09:10:17;99231.38;;;17.09;79.40
75587;BME280;64164;50.156;14.570;2022-10-16T09:15:55;99224.19;;;17.40;77.95
75587;BME280;64164;50.156;14.570;2022-10-16T09:21:39;99221.06;;;17.74;76.42
75587;BME280;64164;50.156;14.570;2022-10-16T09:24:15;99220.22;;;17.68;76.93
75587;BME280;64164;50.156;14.570;2022-10-16T09:26:41;99227.59;;;17.73;76.54
75587;BME280;64164;50.156;14.570;2022-10-16T09:29:11;99226.75;;;17.67;77.21
75587;BME280;64164;50.156;14.570;2022-10-16T09:31:37;99235.41;;;17.59;78.26
75587;BME280;64164;50.156;14.570;2022-10-16T09:34:03;99242.97;;;17.57;78.11
75587;BME280;64164;50.156;14.570;2022-10-16T09:36:37;99232.53;;;17.86;78.73
75587;BME280;64164;50.156;14.570;2022-10-16T09:39:13;99229.03;;;18.01;76.63
75587;BME280;64164;50.156;14.570;2022-10-16T09:41:41;99235.00;;;18.03;75.44
75587;BME280;64164;50.156;14.570;2022-10-16T09:44:26;99239.13;;;18.11;76.14
75587;BME280;64164;50.156;14.570;2022-10-16T09:47:04;99237.53;;;18.30;76.67
75587;BME280;64164;50.156;14.570;2022-10-16T09:49:30;99235.34;;;18.63;75.35
75587;BME280;64164;50.156;14.570;2022-10-16T09:52:10;99238.56;;;19.21;74.29
75587;BME280;64164;50.156;14.570;2022-10-16T09:54:36;99241.97;;;19.67;70.60
75587;BME280;64164;50.156;14.570;2022-10-16T09:57:06;99254.63;;;20.37;68.87
75587;BME280;64164;50.156;14.570;2022-10-16T09:59:32;99256.41;;;20.57;68.28
75587;BME280;64164;50.156;14.570;2022-10-16T10:02:01;99252.22;;;20.35;68.14
75587;BME280;64164;50.156;14.570;2022-10-16T10:04:38;99267.22;;;20.72;68.16
75587;BME280;64164;50.156;14.570;2022-10-16T10:07:04;99261.44;;;20.39;66.61
75587;BME280;64164;50.156;14.570;2022-10-16T10:09:37;99261.66;;;20.09;67.43
75587;BME280;64164;50.156;14.570;2022-10-16T10:12:05;99259.72;;;20.49;67.04
75587;BME280;64164;50.156;14.570;2022-10-16T10:14:39;99256.25;;;20.43;66.91
75587;BME280;64164;50.156;14.570;2022-10-16T10:17:19;99244.09;;;20.25;65.85
75587;BME280;64164;50.156;14.570;2022-10-16T10:19:52;99248.13;;;20.33;67.93
75587;BME280;64164;50.156;14.570;2022-10-16T10:25:18;99241.41;;;21.71;62.41
75587;BME280;64164;50.156;14.570;2022-10-16T10:30:41;99232.22;;;22.75;59.43
75587;BME280;64164;50.156;14.570;2022-10-16T10:33:37;99252.44;;;22.41;59.12
75587;BME280;64164;50.156;14.570;2022-10-16T10:36:14;99244.16;;;22.79;57.54
75587;BME280;64164;50.156;14.570;2022-10-16T10:38:51;99247.53;;;22.57;57.81
75587;BME280;64164;50.156;14.570;2022-10-16T10:46:44;99231.00;;;21.92;59.85
75587;BME280;64164;50.156;14.570;2022-10-16T10:49:38;99229.31;;;22.33;57.68
75587;BME280;64164;50.156;14.570;2022-10-16T10:52:11;99239.06;;;22.72;57.96
75587;BME280;64164;50.156;14.570;2022-10-16T10:57:49;99235.75;;;23.08;55.98
75587;BME280;64164;50.156;14.570;2022-10-16T11:05:46;99246.84;;;23.30;56.45
75587;BME280;64164;50.156;14.570;2022-10-16T11:08:40;99248.50;;;22.99;56.64
75587;BME280;64164;50.156;14.570;2022-10-16T11:11:20;99256.47;;;23.28;56.74
75587;BME280;64164;50.156;14.570;2022-10-16T11:19:20;99256.38;;;23.47;55.24
75587;BME280;64164;50.156;14.570;2022-10-16T11:21:56;99261.19;;;23.09;57.15
75587;BME280;64164;50.156;14.570;2022-10-16T11:24:41;99257.03;;;22.78;57.22
75587;BME280;64164;50.156;14.570;2022-10-16T11:27:12;99248.34;;;22.01;58.68
75587;BME280;64164;50.156;14.570;2022-10-16T11:29:46;99251.47;;;22.13;60.73
75587;BME280;64164;50.156;14.570;2022-10-16T11:32:23;99254.69;;;22.20;59.39
75587;BME280;64164;50.156;14.570;2022-10-16T11:35:00;99262.69;;;22.49;58.65
75587;BME280;64164;50.156;14.570;2022-10-16T11:37:32;99244.50;;;23.24;56.59
75587;BME280;64164;50.156;14.570;2022-10-16T11:40:27;99244.94;;;23.72;55.26
75587;BME280;64164;50.156;14.570;2022-10-16T11:43:13;99245.00;;;23.67;54.95
75587;BME280;64164;50.156;14.570;2022-10-16T11:45:46;99239.13;;;23.60;56.58
75587;BME280;64164;50.156;14.570;2022-10-16T11:48:28;99247.44;;;23.27;55.44
75587;BME280;64164;50.156;14.570;2022-10-16T11:51:08;99246.06;;;22.97;57.06
75587;BME280;64164;50.156;14.570;2022-10-16T11:53:46;99248.25;;;22.81;56.99
75587;BME280;64164;50.156;14.570;2022-10-16T11:56:18;99251.75;;;22.49;59.14
75587;BME280;64164;50.156;14.570;2022-10-16T12:01:27;99255.72;;;22.24;59.86
75587;BME280;64164;50.156;14.570;2022-10-16T12:04:02;99254.69;;;22.20;60.04
75587;BME280;64164;50.156;14.570;2022-10-16T12:09:24;99252.34;;;22.08;59.91
75587;BME280;64164;50.156;14.570;2022-10-16T12:11:51;99253.19;;;22.09;60.42
75587;BME280;64164;50.156;14.570;2022-10-16T12:14:32;99252.31;;;22.32;59.72
75587;BME280;64164;50.156;14.570;2022-10-16T12:17:03;99249.84;;;22.31;59.96
75587;BME280;64164;50.156;14.570;2022-10-16T12:19:31;99246.13;;;22.59;59.46
75587;BME280;64164;50.156;14.570;2022-10-16T12:21:59;99241.66;;;22.82;58.97
75587;BME280;64164;50.156;14.570;2022-10-16T12:24:35;99253.09;;;23.17;57.73
75587;BME280;64164;50.156;14.570;2022-10-16T12:27:01;99252.03;;;23.73;56.51
75587;BME280;64164;50.156;14.570;2022-10-16T12:29:38;99238.88;;;23.98;56.00
75587;BME280;64164;50.156;14.570;2022-10-16T12:32:18;99236.78;;;23.95;54.66
75587;BME280;64164;50.156;14.570;2022-10-16T12:34:47;99244.88;;;23.86;54.30
75587;BME280;64164;50.156;14.570;2022-10-16T12:37:26;99242.94;;;24.00;55.67
75587;BME280;64164;50.156;14.570;2022-10-16T12:39:54;99247.28;;;24.15;55.68
75587;BME280;64164;50.156;14.570;2022-10-16T12:44:53;99242.88;;;23.64;56.59
75587;BME280;64164;50.156;14.570;2022-10-16T12:47:37;99244.59;;;23.88;56.56
75587;BME280;64164;50.156;14.570;2022-10-16T12:50:03;99248.72;;;25.65;51.04
75587;BME280;64164;50.156;14.570;2022-10-16T12:52:48;99254.53;;;27.28;46.79
75587;BME280;64164;50.156;14.570;2022-10-16T12:55:18;99247.97;;;30.84;39.48
75587;BME280;64164;50.156;14.570;2022-10-16T13:00:58;99238.09;;;29.41;39.85
75587;BME280;64164;50.156;14.570;2022-10-16T13:06:14;99240.59;;;26.26;46.79
75587;BME280;64164;50.156;14.570;2022-10-16T13:09:00;99246.88;;;25.12;51.17
75587;BME280;64164;50.156;14.570;2022-10-16T13:11:39;99251.72;;;24.25;52.73
75587;BME280;64164;50.156;14.570;2022-10-16T13:22:18;99257.97;;;28.35;42.65
75587;BME280;64164;50.156;14.570;2022-10-16T13:27:44;99258.22;;;26.42;47.77
75587;BME280;64164;50.156;14.570;2022-10-16T13:30:18;99261.41;;;26.01;49.03
75587;BME280;64164;50.156;14.570;2022-10-16T13:32:50;99268.66;;;25.39;50.91
75587;BME280;64164;50.156;14.570;2022-10-16T13:35:29;99266.53;;;24.83;51.87
75587;BME280;64164;50.156;14.570;2022-10-16T13:38:14;99272.28;;;24.50;53.92
75587;BME280;64164;50.156;14.570;2022-10-16T13:43:17;99274.50;;;23.98;54.60
75587;BME280;64164;50.156;14.570;2022-10-16T13:45:53;99271.72;;;23.75;55.98
75587;BME280;64164;50.156;14.570;2022-10-16T13:48:18;99280.03;;;23.70;57.15
75587;BME280;64164;50.156;14.570;2022-10-16T13:50:43;99257.47;;;23.60;56.34
75587;BME280;64164;50.156;14.570;2022-10-16T13:53:14;99267.84;;;23.49;57.58
75587;BME280;64164;50.156;14.570;2022-10-16T13:55:39;99263.38;;;23.39;58.34
75587;BME280;64164;50.156;14.570;2022-10-16T13:58:08;99270.75;;;23.11;57.27
75587;BME280;64164;50.156;14.570;2022-10-16T14:00:33;99273.47;;;22.78;58.32
75587;BME280;64164;50.156;14.570;2022-10-16T14:03:20;99278.75;;;22.56;60.35
75587;BME280;64164;50.156;14.570;2022-10-16T14:05:54;99275.66;;;22.44;60.22
75587;BME280;64164;50.156;14.570;2022-10-16T14:08:22;99279.34;;;22.15;61.64
75587;BME280;64164;50.156;14.570;2022-10-16T14:10:50;99284.31;;;22.08;61.63
75587;BME280;64164;50.156;14.570;2022-10-16T14:13:19;99277.38;;;21.97;62.69
75587;BME280;64164;50.156;14.570;2022-10-16T14:15:47;99281.06;;;21.87;62.86
75587;BME280;64164;50.156;14.570;2022-10-16T14:18:20;99287.19;;;21.79;63.77
75587;BME280;64164;50.156;14.570;2022-10-16T14:20:47;99284.78;;;21.72;62.83
75587;BME280;64164;50.156;14.570;2022-10-16T14:23:28;99286.47;;;21.68;62.81
75587;BME280;64164;50.156;14.570;2022-10-16T14:25:54;99274.38;;;21.50;64.25
75587;BME280;64164;50.156;14.570;2022-10-16T14:28:30;99281.38;;;21.37;64.51
75587;BME280;64164;50.156;14.570;2022-10-16T14:30:58;99279.34;;;21.19;64.56
75587;BME280;64164;50.156;14.570;2022-10-16T14:38:36;99276.66;;;21.14;65.20
75587;BME280;64164;50.156;14.570;2022-10-16T14:41:03;99276.94;;;21.12;65.29
75587;BME280;64164;50.156;14.570;2022-10-16T14:45:57;99274.66;;;20.96;65.14
75587;BME280;64164;50.156;14.570;2022-10-16T14:48:23;99275.84;;;20.84;66.05
75587;BME280;64164;50.156;14.570;2022-10-16T14:50:49;99269.91;;;20.77;65.73
75587;BME280;64164;50.156;14.570;2022-10-16T14:53:15;99273.28;;;20.64;67.93
75587;BME280;64164;50.156;14.570;2022-10-16T14:55:41;99276.00;;;20.64;67.08
75587;BME280;64164;50.156;14.570;2022-10-16T14:58:25;99275.16;;;20.69;67.16
75587;BME280;64164;50.156;14.570;2022-10-16T15:00:51;99284.78;;;20.61;67.49
75587;BME280;64164;50.156;14.570;2022-10-16T15:03:16;99288.41;;;21.14;65.69
75587;BME280;64164;50.156;14.570;2022-10-16T15:05:42;99281.34;;;21.85;63.43
75587;BME280;64164;50.156;14.570;2022-10-16T15:08:07;99290.47;;;21.76;65.04
75587;BME280;64164;50.156;14.570;2022-10-16T15:10:37;99289.34;;;22.76;60.87
75587;BME280;64164;50.156;14.570;2022-10-16T15:13:03;99289.00;;;22.64;61.33
75587;BME280;64164;50.156;14.570;2022-10-16T15:15:36;99285.50;;;23.57;59.24
75587;BME280;64164;50.156;14.570;2022-10-16T15:18:03;99287.72;;;23.54;59.11
75587;BME280;64164;50.156;14.570;2022-10-16T15:20:34;99284.56;;;23.61;58.36
75587;BME280;64164;50.156;14.570;2022-10-16T15:23:05;99292.44;;;23.08;60.48
75587;BME280;64164;50.156;14.570;2022-10-16T15:25:38;99295.25;;;22.32;61.91
75587;BME280;64164;50.156;14.570;2022-10-16T15:28:05;99284.06;;;21.85;63.53
75587;BME280;64164;50.156;14.570;2022-10-16T15:30:32;99297.75;;;21.61;64.82
75587;BME280;64164;50.156;14.570;2022-10-16T15:32:58;99293.91;;;21.38;66.64
75587;BME280;64164;50.156;14.570;2022-10-16T15:35:23;99291.63;;;21.17;67.84
75587;BME280;64164;50.156;14.570;2022-10-16T15:37:49;99295.66;;;20.95;68.92
75587;BME280;64164;50.156;14.570;2022-10-16T15:40:16;99295.09;;;20.64;70.05
75587;BME280;64164;50.156;14.570;2022-10-16T15:42:41;99299.63;;;20.34;71.99
75587;BME280;64164;50.156;14.570;2022-10-16T15:45:08;99289.69;;;20.09;72.87
75587;BME280;64164;50.156;14.570;2022-10-16T15:47:34;99299.88;;;19.83;73.71
75587;BME280;64164;50.156;14.570;2022-10-16T15:49:59;99307.84;;;19.59;75.03
75587;BME280;64164;50.156;14.570;2022-10-16T15:52:25;99304.91;;;19.40;75.17
75587;BME280;64164;50.156;14.570;2022-10-16T15:54:50;99314.72;;;19.26;75.71
75587;BME280;64164;50.156;14.570;2022-10-16T15:57:15;99317.44;;;19.16;76.23
75587;BME280;64164;50.156;14.570;2022-10-16T15:59:41;99312.03;;;19.01;76.58
75587;BME280;64164;50.156;14.570;2022-10-16T16:02:08;99310.41;;;18.84;77.78
75587;BME280;64164;50.156;14.570;2022-10-16T16:04:34;99316.34;;;18.66;78.53
75587;BME280;64164;50.156;14.570;2022-10-16T16:07:00;99321.19;;;18.48;79.96
75587;BME280;64164;50.156;14.570;2022-10-16T16:09:26;99326.06;;;18.26;80.73
75587;BME280;64164;50.156;14.570;2022-10-16T16:11:51;99330.06;;;18.08;81.45
75587;BME280;64164;50.156;14.570;2022-10-16T16:14:17;99325.13;;;17.90;82.47
75587;BME280;64164;50.156;14.570;2022-10-16T16:16:43;99330.47;;;17.80;83.42
75587;BME280;64164;50.156;14.570;2022-10-16T16:19:08;99334.47;;;17.67;83.42
75587;BME280;64164;50.156;14.570;2022-10-16T16:21:34;99341.75;;;17.61;84.30
75587;BME280;64164;50.156;14.570;2022-10-16T16:24:00;99344.84;;;17.75;84.47
75587;BME280;64164;50.156;14.570;2022-10-16T16:26:29;99346.47;;;17.76;84.16
75587;BME280;64164;50.156;14.570;2022-10-16T16:28:59;99341.19;;;17.54;85.07
75587;BME280;64164;50.156;14.570;2022-10-16T16:31:26;99342.50;;;17.46;84.99
75587;BME280;64164;50.156;14.570;2022-10-16T16:33:52;99336.97;;;17.31;85.43
75587;BME280;64164;50.156;14.570;2022-10-16T16:36:19;99349.91;;;17.19;85.36
75587;BME280;64164;50.156;14.570;2022-10-16T16:38:45;99349.47;;;17.00;85.72
75587;BME280;64164;50.156;14.570;2022-10-16T16:41:12;99358.13;;;16.97;85.66
75587;BME280;64164;50.156;14.570;2022-10-16T16:43:37;99357.69;;;16.78;86.94
75587;BME280;64164;50.156;14.570;2022-10-16T16:46:03;99363.22;;;16.66;86.81
75587;BME280;64164;50.156;14.570;2022-10-16T16:48:28;99367.44;;;16.52;87.23
75587;BME280;64164;50.156;14.570;2022-10-16T16:50:54;99371.34;;;16.39;88.32
75587;BME280;64164;50.156;14.570;2022-10-16T16:53:19;99378.31;;;16.30;88.34
75587;BME280;64164;50.156;14.570;2022-10-16T16:55:44;99379.81;;;16.21;88.07
75587;BME280;64164;50.156;14.570;2022-10-16T16:58:10;99380.25;;;16.13;88.98
75587;BME280;64164;50.156;14.570;2022-10-16T17:00:35;99384.41;;;15.98;87.72
75587;BME280;64164;50.156;14.570;2022-10-16T17:03:00;99388.56;;;15.84;88.10
75587;BME280;64164;50.156;14.570;2022-10-16T17:05:26;99395.13;;;15.71;88.19
75587;BME280;64164;50.156;14.570;2022-10-16T17:07:51;99391.94;;;15.57;88.80
75587;BME280;64164;50.156;14.570;2022-10-16T17:10:16;99394.16;;;15.44;89.87
75587;BME280;64164;50.156;14.570;2022-10-16T17:12:45;99396.38;;;15.30;90.39
75587;BME280;64164;50.156;14.570;2022-10-16T17:15:10;99400.16;;;15.29;91.66
75587;BME280;64164;50.156;14.570;2022-10-16T17:17:35;99406.31;;;15.24;92.66
75587;BME280;64164;50.156;14.570;2022-10-16T17:20:01;99405.06;;;15.15;93.00
75587;BME280;64164;50.156;14.570;2022-10-16T17:22:26;99412.59;;;15.13;93.10
75587;BME280;64164;50.156;14.570;2022-10-16T17:24:51;99413.69;;;15.12;93.56
75587;BME280;64164;50.156;14.570;2022-10-16T17:27:19;99415.38;;;15.01;91.23
75587;BME280;64164;50.156;14.570;2022-10-16T17:29:49;99419.03;;;14.95;91.05
75587;BME280;64164;50.156;14.570;2022-10-16T17:32:14;99416.00;;;14.92;91.14
75587;BME280;64164;50.156;14.570;2022-10-16T17:34:39;99423.63;;;14.95;91.11
75587;BME280;64164;50.156;14.570;2022-10-16T17:37:05;99426.06;;;14.96;91.24
75587;BME280;64164;50.156;14.570;2022-10-16T17:39:30;99434.19;;;14.96;91.18
75587;BME280;64164;50.156;14.570;2022-10-16T17:41:55;99432.00;;;14.93;90.71
75587;BME280;64164;50.156;14.570;2022-10-16T17:44:20;99432.00;;;14.93;90.67
75587;BME280;64164;50.156;14.570;2022-10-16T17:46:48;99440.00;;;14.88;91.03
75587;BME280;64164;50.156;14.570;2022-10-16T17:49:15;99441.31;;;14.86;91.29
75587;BME280;64164;50.156;14.570;2022-10-16T17:51:40;99443.34;;;14.78;91.55
75587;BME280;64164;50.156;14.570;2022-10-16T17:54:06;99444.41;;;14.77;92.22
75587;BME280;64164;50.156;14.570;2022-10-16T17:56:32;99447.34;;;14.76;91.89
75587;BME280;64164;50.156;14.570;2022-10-16T17:58:59;99459.53;;;14.78;91.94
75587;BME280;64164;50.156;14.570;2022-10-16T18:01:35;99453.47;;;14.71;91.86
75587;BME280;64164;50.156;14.570;2022-10-16T18:04:04;99465.38;;;14.58;91.83
75587;BME280;64164;50.156;14.570;2022-10-16T18:06:32;99462.22;;;14.50;92.63
75587;BME280;64164;50.156;14.570;2022-10-16T18:08:58;99466.69;;;14.44;93.16
75587;BME280;64164;50.156;14.570;2022-10-16T18:11:24;99459.53;;;14.38;93.51
75587;BME280;64164;50.156;14.570;2022-10-16T18:13:54;99465.50;;;14.40;93.80
75587;BME280;64164;50.156;14.570;2022-10-16T18:16:20;99465.28;;;14.30;94.22
75587;BME280;64164;50.156;14.570;2022-10-16T18:18:45;99467.78;;;14.20;94.36
75587;BME280;64164;50.156;14.570;2022-10-16T18:21:14;99479.59;;;14.30;94.68
75587;BME280;64164;50.156;14.570;2022-10-16T18:23:40;99482.31;;;14.30;94.86
75587;BME280;64164;50.156;14.570;2022-10-16T18:26:07;99483.97;;;14.20;95.05
75587;BME280;64164;50.156;14.570;2022-10-16T18:28:32;99480.13;;;14.04;95.30
75587;BME280;64164;50.156;14.570;2022-10-16T18:31:01;99482.34;;;13.95;95.39
75587;BME280;64164;50.156;14.570;2022-10-16T18:33:27;99490.31;;;13.90;95.52
75587;BME280;64164;50.156;14.570;2022-10-16T18:35:55;99492.91;;;13.97;95.76
75587;BME280;64164;50.156;14.570;2022-10-16T18:38:21;99494.53;;;13.86;95.90
75587;BME280;64164;50.156;14.570;2022-10-16T18:40:46;99501.09;;;13.78;96.16
75587;BME280;64164;50.156;14.570;2022-10-16T18:43:12;99500.19;;;13.73;96.39
75587;BME280;64164;50.156;14.570;2022-10-16T18:45:37;99499.81;;;13.69;96.38
75587;BME280;64164;50.156;14.570;2022-10-16T18:48:03;99500.75;;;13.63;96.49
75587;BME280;64164;50.156;14.570;2022-10-16T18:50:28;99496.88;;;13.59;96.58
75587;BME280;64164;50.156;14.570;2022-10-16T18:52:54;99497.13;;;13.57;96.66
75587;BME280;64164;50.156;14.570;2022-10-16T18:55:19;99494.88;;;13.54;96.57
75587;BME280;64164;50.156;14.570;2022-10-16T18:57:45;99497.47;;;13.49;96.79
75587;BME280;64164;50.156;14.570;2022-10-16T19:00:11;99501.78;;;13.50;96.73
75587;BME280;64164;50.156;14.570;2022-10-16T19:02:36;99503.06;;;13.48;96.98
75587;BME280;64164;50.156;14.570;2022-10-16T19:05:02;99503.88;;;13.48;97.04
75587;BME280;64164;50.156;14.570;2022-10-16T19:07:28;99502.69;;;13.44;96.83
75587;BME280;64164;50.156;14.570;2022-10-16T19:09:53;99502.13;;;13.42;97.07
75587;BME280;64164;50.156;14.570;2022-10-16T19:12:19;99496.59;;;13.37;96.96
75587;BME280;64164;50.156;14.570;2022-10-16T19:14:47;99501.66;;;13.33;97.04
75587;BME280;64164;50.156;14.570;2022-10-16T19:17:12;99515.94;;;13.34;96.97
75587;BME280;64164;50.156;14.570;2022-10-16T19:19:37;99515.78;;;13.29;97.29
75587;BME280;64164;50.156;14.570;2022-10-16T19:22:03;99516.97;;;13.33;97.36
75587;BME280;64164;50.156;14.570;2022-10-16T19:24:54;99515.94;;;13.34;97.30
75587;BME280;64164;50.156;14.570;2022-10-16T19:27:20;99522.72;;;13.36;97.33
75587;BME280;64164;50.156;14.570;2022-10-16T19:29:45;99524.38;;;13.37;97.44
75587;BME280;64164;50.156;14.570;2022-10-16T19:32:10;99528.13;;;13.36;97.47
75587;BME280;64164;50.156;14.570;2022-10-16T19:34:36;99530.81;;;13.36;97.54
75587;BME280;64164;50.156;14.570;2022-10-16T19:37:01;99539.03;;;13.42;97.51
75587;BME280;64164;50.156;14.570;2022-10-16T19:39:26;99546.31;;;13.41;97.42
75587;BME280;64164;50.156;14.570;2022-10-16T19:41:52;99554.88;;;13.50;97.56
75587;BME280;64164;50.156;14.570;2022-10-16T19:44:18;99562.75;;;13.63;97.39
75587;BME280;64164;50.156;14.570;2022-10-16T19:46:43;99564.78;;;13.68;97.05
75587;BME280;64164;50.156;14.570;2022-10-16T19:49:11;99563.13;;;13.67;97.19
75587;BME280;64164;50.156;14.570;2022-10-16T19:51:37;99566.50;;;13.62;97.36
75587;BME280;64164;50.156;14.570;2022-10-16T19:54:06;99569.66;;;13.59;97.67
75587;BME280;64164;50.156;14.570;2022-10-16T19:56:33;99577.75;;;13.59;97.35
75587;BME280;64164;50.156;14.570;2022-10-16T19:58:59;99581.16;;;13.54;97.42
75587;BME280;64164;50.156;14.570;2022-10-16T20:01:27;99579.72;;;13.52;97.46
75587;BME280;64164;50.156;14.570;2022-10-16T20:03:53;99582.53;;;13.45;97.86
75587;BME280;64164;50.156;14.570;2022-10-16T20:06:19;99586.97;;;13.39;97.33
75587;BME280;64164;50.156;14.570;2022-10-16T20:08:47;99587.66;;;13.35;97.57
75587;BME280;64164;50.156;14.570;2022-10-16T20:11:18;99594.19;;;13.27;97.40
75587;BME280;64164;50.156;14.570;2022-10-16T20:13:45;99598.91;;;13.44;98.20
75587;BME280;64164;50.156;14.570;2022-10-16T20:16:11;99600.47;;;13.51;98.11
75587;BME280;64164;50.156;14.570;2022-10-16T20:18:38;99604.00;;;13.52;98.07
75587;BME280;64164;50.156;14.570;2022-10-16T20:21:15;99599.06;;;13.49;97.74
75587;BME280;64164;50.156;14.570;2022-10-16T20:23:41;99598.34;;;13.42;97.74
75587;BME280;64164;50.156;14.570;2022-10-16T20:26:07;99607.34;;;13.35;97.78
75587;BME280;64164;50.156;14.570;2022-10-16T20:28:35;99607.22;;;13.30;97.56
75587;BME280;64164;50.156;14.570;2022-10-16T20:31:08;99600.38;;;13.28;97.56
75587;BME280;64164;50.156;14.570;2022-10-16T20:33:34;99596.72;;;13.22;97.76
75587;BME280;64164;50.156;14.570;2022-10-16T20:35:59;99599.03;;;13.19;97.59
75587;BME280;64164;50.156;14.570;2022-10-16T20:38:24;99590.59;;;13.15;97.63
75587;BME280;64164;50.156;14.570;2022-10-16T20:40:50;99581.09;;;13.12;97.56
75587;BME280;64164;50.156;14.570;2022-10-16T20:43:17;99583.78;;;13.12;97.81